createdAt,value
2018-04-30T00:04:53.007Z,9.7
2018-04-30T00:10:19.473Z,9.7
2018-04-30T00:15:45.776Z,9.7
2018-04-30T00:21:13.188Z,9.6
2018-04-30T00:26:39.632Z,9.5
2018-04-30T00:32:06.055Z,9.5
2018-04-30T00:37:32.401Z,9.5
2018-04-30T00:42:59.866Z,9.5
2018-04-30T00:48:26.141Z,9.4
2018-04-30T00:53:53.600Z,9.4
2018-04-30T00:59:19.902Z,9.4
2018-04-30T01:04:46.317Z,9.4
2018-04-30T01:10:12.703Z,9.4
2018-04-30T01:15:38.887Z,9.5
2018-04-30T01:21:05.278Z,9.5
2018-04-30T01:26:32.779Z,9.5
2018-04-30T01:31:59.013Z,9.4
2018-04-30T01:37:26.359Z,9.3
2018-04-30T01:42:52.777Z,9.3
2018-04-30T01:48:19.077Z,9.3
2018-04-30T01:53:45.449Z,9.3
2018-04-30T01:59:11.796Z,9.3
2018-04-30T02:04:39.276Z,9.3
2018-04-30T02:10:05.506Z,9.4
2018-04-30T02:15:31.874Z,9.3
2018-04-30T02:20:59.168Z,9.4
2018-04-30T02:26:26.842Z,9.3
2018-04-30T02:31:52.846Z,9.3
2018-04-30T02:37:19.461Z,9.3
2018-04-30T02:42:45.535Z,9.3
2018-04-30T02:48:12.890Z,9.3
2018-04-30T02:53:39.310Z,9.3
2018-04-30T03:10:00.679Z,9.3
2018-04-30T03:15:27.510Z,9.3
2018-04-30T03:20:53.908Z,9.4
2018-04-30T03:26:20.283Z,9.3
2018-04-30T03:31:46.478Z,9.3
2018-04-30T03:37:12.989Z,9.3
2018-04-30T03:42:39.456Z,9.3
2018-04-30T03:48:05.748Z,9.3
2018-04-30T03:53:31.957Z,9.2
2018-04-30T03:58:58.180Z,9.3
2018-04-30T04:04:25.413Z,9.3
2018-04-30T04:09:52.719Z,9.3
2018-04-30T04:15:20.183Z,9.4
2018-04-30T04:20:47.688Z,9.4
2018-04-30T04:26:13.891Z,9.4
2018-04-30T04:31:41.083Z,9.4
2018-04-30T04:37:07.532Z,9.5
2018-04-30T04:42:34.761Z,9.6
2018-04-30T04:48:02.145Z,9.7
2018-04-30T04:53:28.460Z,9.7
2018-04-30T04:58:56.214Z,9.6
2018-04-30T05:04:23.138Z,9.6
2018-04-30T05:09:50.705Z,9.6
2018-04-30T05:15:16.858Z,9.6
2018-04-30T05:20:44.171Z,9.6
2018-04-30T05:26:10.486Z,9.7
2018-04-30T05:31:36.851Z,9.7
2018-04-30T05:37:03.234Z,9.6
2018-04-30T05:42:29.689Z,9.5
2018-04-30T05:47:56.965Z,9.3
2018-04-30T05:53:23.219Z,9.2
2018-04-30T05:58:50.609Z,9.1
2018-04-30T06:04:17.793Z,9
2018-04-30T06:09:44.147Z,9
2018-04-30T06:15:10.576Z,9.1
2018-04-30T06:20:37.759Z,9.1
2018-04-30T06:26:03.918Z,9.2
2018-04-30T06:31:30.261Z,9.2
2018-04-30T06:36:57.699Z,9.2
2018-04-30T06:42:23.869Z,9.2
2018-04-30T06:47:50.360Z,9.2
2018-04-30T06:58:44.768Z,9.3
2018-04-30T07:04:12.040Z,9.4
2018-04-30T07:09:38.514Z,9.4
2018-04-30T07:15:05.692Z,9.4
2018-04-30T07:20:32.152Z,9.4
2018-04-30T07:25:59.168Z,9.4
2018-04-30T07:36:52.941Z,9.4
2018-04-30T07:42:20.599Z,9.4
2018-04-30T07:47:46.531Z,9.1
2018-04-30T07:53:13.893Z,8.9
2018-04-30T07:58:39.987Z,8.9
2018-04-30T08:04:06.399Z,8.9
2018-04-30T08:09:33.551Z,8.8
2018-04-30T08:14:59.931Z,8.8
2018-04-30T08:20:27.820Z,8.8
2018-04-30T08:25:53.388Z,8.8
2018-04-30T08:31:20.438Z,9
2018-04-30T08:36:46.673Z,9
2018-04-30T08:42:12.928Z,9.1
2018-04-30T08:47:39.182Z,9.1
2018-04-30T08:53:05.426Z,9.3
2018-04-30T09:03:59.046Z,10.3
2018-04-30T09:09:25.366Z,10.3
2018-04-30T09:14:51.886Z,10.3
2018-04-30T09:20:18.109Z,10.4
2018-04-30T09:25:44.505Z,10.4
2018-04-30T09:31:10.767Z,10.4
2018-04-30T09:36:38.148Z,10.3
2018-04-30T09:42:04.482Z,10.9
2018-04-30T09:47:31.968Z,11.4
2018-04-30T09:52:59.369Z,11.5
2018-04-30T09:58:26.873Z,11.4
2018-04-30T10:03:53.326Z,11.4
2018-04-30T10:09:19.682Z,11.4
2018-04-30T10:14:46.105Z,11.3
2018-04-30T10:20:13.541Z,11.3
2018-04-30T10:25:40.976Z,11.1
2018-04-30T10:31:08.603Z,11
2018-04-30T10:36:35.749Z,10.9
2018-04-30T10:42:02.169Z,10.9
2018-04-30T10:47:29.780Z,10.9
2018-04-30T10:52:56.981Z,10.9
2018-04-30T10:58:23.606Z,10.9
2018-04-30T11:03:50.785Z,10.9
2018-04-30T11:09:18.176Z,11
2018-04-30T11:14:44.616Z,10.9
2018-04-30T11:20:11.050Z,10.8
2018-04-30T11:25:38.433Z,10.8
2018-04-30T11:31:04.952Z,10.8
2018-04-30T11:36:30.957Z,10.8
2018-04-30T11:41:58.361Z,10.8
2018-04-30T11:47:25.932Z,10.7
2018-04-30T11:52:52.100Z,10.7
2018-04-30T11:58:19.589Z,10.6
2018-04-30T12:03:45.844Z,10.6
2018-04-30T12:09:13.142Z,10.5
2018-04-30T12:14:39.776Z,10.5
2018-04-30T12:20:06.872Z,10.5
2018-04-30T12:25:33.300Z,10.5
2018-04-30T12:30:59.759Z,10.5
2018-04-30T12:36:26.843Z,10.4
2018-04-30T12:41:54.183Z,10.4
2018-04-30T12:47:21.531Z,10.4
2018-04-30T12:52:47.793Z,10.4
2018-04-30T12:58:14.216Z,10.3
2018-04-30T13:03:41.439Z,10.3
2018-04-30T13:09:08.764Z,10.3
2018-04-30T13:14:35.093Z,10.4
2018-04-30T13:20:02.493Z,10.5
2018-04-30T13:25:28.705Z,10.5
2018-04-30T13:30:55.082Z,10.5
2018-04-30T13:36:21.689Z,10.6
2018-04-30T13:41:48.715Z,10.5
2018-04-30T13:47:16.048Z,10.5
2018-04-30T13:52:42.375Z,10.6
2018-04-30T13:58:09.795Z,10.6
2018-04-30T14:03:35.988Z,10.7
2018-04-30T14:09:03.454Z,10.8
2018-04-30T14:14:30.702Z,10.9
2018-04-30T14:19:57.106Z,11.1
2018-04-30T14:25:23.578Z,11.2
2018-04-30T14:30:50.805Z,11.2
2018-04-30T14:36:18.221Z,11.2
2018-04-30T14:41:45.643Z,11.2
2018-04-30T14:47:12.316Z,11.2
2018-04-30T14:52:38.431Z,11.2
2018-04-30T14:58:05.703Z,11.4
2018-04-30T15:03:32.205Z,11.4
2018-04-30T15:08:59.488Z,11.5
2018-04-30T15:14:26.833Z,11.4
2018-04-30T15:19:53.562Z,11.4
2018-04-30T15:25:19.611Z,11.4
2018-04-30T15:30:46.978Z,11.3
2018-04-30T15:41:40.868Z,11.3
2018-04-30T15:47:08.221Z,11.5
2018-04-30T15:52:34.523Z,11.6
2018-04-30T15:58:02.333Z,11.5
2018-04-30T16:03:29.376Z,11.5
2018-04-30T16:08:57.597Z,11.5
2018-04-30T16:14:24.187Z,11.5
2018-04-30T16:19:50.651Z,11.6
2018-04-30T16:25:16.859Z,11.8
2018-04-30T16:30:43.380Z,11.9
2018-04-30T16:36:09.667Z,12
2018-04-30T16:41:36.136Z,12.1
2018-04-30T16:47:03.526Z,12.2
2018-04-30T16:52:30.998Z,12.3
2018-04-30T16:57:57.501Z,12.2
2018-04-30T17:03:23.933Z,12.2
2018-04-30T17:08:50.620Z,12
2018-04-30T17:19:43.387Z,11.9
2018-04-30T17:25:10.613Z,11.9
2018-04-30T17:30:38.288Z,11.9
2018-04-30T17:36:05.393Z,11.8
2018-04-30T17:41:31.959Z,11.7
2018-04-30T17:46:59.266Z,11.7
2018-04-30T17:52:26.628Z,11.6
2018-04-30T17:57:52.993Z,11.5
2018-04-30T18:03:20.532Z,11.4
2018-04-30T18:08:46.804Z,11.4
2018-04-30T18:14:13.067Z,11.3
2018-04-30T18:19:40.547Z,11.2
2018-04-30T18:25:06.686Z,11.2
2018-04-30T18:30:34.184Z,11.2
2018-04-30T18:36:00.360Z,11.1
2018-04-30T18:41:28.036Z,11.1
2018-04-30T18:46:55.002Z,10.9
2018-04-30T18:52:22.454Z,10.9
2018-04-30T18:57:48.582Z,10.7
2018-04-30T19:03:14.944Z,10.7
2018-04-30T19:08:41.193Z,10.7
2018-04-30T19:14:07.542Z,10.8
2018-04-30T19:19:34.834Z,10.9
2018-04-30T19:25:01.117Z,10.9
2018-04-30T19:30:27.414Z,10.9
2018-04-30T19:35:53.747Z,10.9
2018-04-30T19:41:20.104Z,10.8
2018-04-30T19:46:47.271Z,10.8
2018-04-30T19:52:14.592Z,10.7
2018-04-30T19:57:40.842Z,10.6
2018-04-30T20:03:07.220Z,10.5
2018-04-30T20:08:34.374Z,10.4
2018-04-30T20:14:01.784Z,10.4
2018-04-30T20:19:27.838Z,10.3
2018-04-30T20:24:54.231Z,10.3
2018-04-30T20:30:21.482Z,10.3
2018-04-30T20:35:48.602Z,10.2
2018-04-30T20:41:15.818Z,10.1
2018-04-30T20:46:42.179Z,10
2018-04-30T20:52:09.501Z,9.9
2018-04-30T20:57:35.424Z,9.8
2018-04-30T21:03:02.647Z,9.7
2018-04-30T21:08:28.833Z,9.7
2018-04-30T21:13:54.983Z,9.6
2018-04-30T21:19:21.169Z,9.5
2018-04-30T21:24:48.395Z,9.5
2018-04-30T21:30:14.723Z,9.4
2018-04-30T21:35:41.660Z,9.3
2018-04-30T21:41:07.971Z,9.3
2018-04-30T21:46:34.060Z,9.3
2018-04-30T21:52:01.405Z,9.2
2018-04-30T21:57:28.505Z,9.2
2018-04-30T22:02:54.454Z,9.1
2018-04-30T22:08:21.685Z,9
2018-04-30T22:13:47.700Z,9
2018-04-30T22:19:14.728Z,8.9
2018-04-30T22:24:41.849Z,8.9
2018-04-30T22:30:07.948Z,8.8
2018-04-30T22:35:34.037Z,8.7
2018-04-30T22:41:00.158Z,8.7
2018-04-30T22:46:27.137Z,8.7
2018-04-30T22:51:53.365Z,8.7
2018-04-30T22:57:19.409Z,8.6
2018-04-30T23:02:46.467Z,8.6
2018-04-30T23:08:12.467Z,8.6
2018-04-30T23:13:39.531Z,8.5
2018-04-30T23:19:05.562Z,8.5
2018-04-30T23:24:31.641Z,8.4
2018-04-30T23:29:58.642Z,8.4
2018-04-30T23:35:24.702Z,8.3
2018-04-30T23:40:50.907Z,8.3
2018-04-30T23:46:17.823Z,8.4
2018-04-30T23:51:44.941Z,8.4
2018-04-30T23:57:11.772Z,8.5
